Time;durP1;ratioP1;P1;durP2;ratioP2;P2;SDS_P1;SDS_P2;PMS_P1;PMS_P2;Temp;Humidity;BMP_temperature;BMP_pressure;BME280_temperature;BME280_humidity;BME280_pressure;Samples;Min_cycle;Max_cycle;Signal;HPM_P1;HPM_P2
2023/10/09 00:01:13;;;;;;;0.98;0.77;;;;;;;20.06;45.67;94027.19;6069654;23;20065;-92
2023/10/09 00:03:42;;;;;;;0.93;0.63;;;;;;;20.07;45.98;94022.44;6069692;23;20018;-91
2023/10/09 00:06:08;;;;;;;0.85;0.70;;;;;;;20.06;46.00;93999.75;6066117;23;20451;-93
2023/10/09 00:08:37;;;;;;;1.08;0.60;;;;;;;20.06;45.89;94002.50;6067178;23;20029;-93
2023/10/09 00:11:18;;;;;;;0.57;0.50;;;;;;;20.05;46.07;94008.47;6043378;23;20030;-92
2023/10/09 00:13:50;;;;;;;1.63;1.00;;;;;;;20.05;45.74;94003.00;6073458;23;20033;-95
2023/10/09 00:16:17;;;;;;;0.73;0.63;;;;;;;20.05;45.86;93992.00;6068382;23;20089;-93
2023/10/09 00:18:46;;;;;;;0.70;0.50;;;;;;;20.07;45.94;93995.00;6066949;23;20066;-94
2023/10/09 00:21:17;;;;;;;0.98;0.88;;;;;;;20.06;45.90;93986.03;6043621;23;20026;-93
2023/10/09 00:23:42;;;;;;;;;;;;;;;20.09;45.85;93985.00;6067575;23;20093;-93
2023/10/09 00:26:10;;;;;;;1.90;0.63;;;;;;;20.06;46.17;93983.28;6066119;23;19916;-94
2023/10/09 00:28:37;;;;;;;0.70;0.55;;;;;;;20.04;45.96;93974.06;6066469;23;20022;-94
2023/10/09 00:31:07;;;;;;;0.73;0.65;;;;;;;20.03;45.98;93978.06;6067025;23;20089;-93
2023/10/09 00:33:34;;;;;;;0.70;0.63;;;;;;;20.06;45.99;93985.28;6067001;23;20104;-92
2023/10/09 00:36:10;;;;;;;0.95;0.68;;;;;;;20.05;45.89;93973.53;6042722;23;20019;-94
2023/10/09 00:38:38;;;;;;;0.75;0.63;;;;;;;20.05;45.87;93989.28;6044791;23;20049;-93
2023/10/09 00:41:10;;;;;;;1.25;0.75;;;;;;;20.06;46.07;93988.75;6042715;23;20469;-94
2023/10/09 00:43:37;;;;;;;0.77;0.60;;;;;;;20.06;45.92;93983.28;6068709;23;20022;-93
2023/10/09 00:48:52;;;;;;;0.88;0.80;;;;;;;20.06;45.81;93991.50;6070104;23;20053;-93
2023/10/09 00:51:18;;;;;;;1.15;0.55;;;;;;;20.07;45.82;93975.78;6065521;23;20339;-92
2023/10/09 00:53:51;;;;;;;1.08;0.77;;;;;;;20.06;45.99;93986.03;6066748;23;20026;-91
2023/10/09 00:56:20;;;;;;;0.75;0.73;;;;;;;20.08;45.91;93982.78;6066434;23;20022;-93
2023/10/09 00:58:55;;;;;;;0.73;0.40;;;;;;;20.06;46.04;93958.56;6067876;23;20346;-93
2023/10/09 01:01:26;;;;;;;1.15;0.80;;;;;;;20.07;46.19;93949.09;6066853;23;20016;-94
2023/10/09 01:03:51;;;;;;;0.60;0.50;;;;;;;20.06;45.96;93955.09;6067672;23;20010;-94
2023/10/09 01:06:20;;;;;;;0.85;0.63;;;;;;;20.08;46.10;93953.31;6065304;23;20015;-94
2023/10/09 01:09:07;;;;;;;0.77;0.60;;;;;;;20.04;45.78;93947.34;6068165;23;20439;-94
2023/10/09 01:11:32;;;;;;;0.90;0.70;;;;;;;20.04;45.87;93949.34;6070791;23;20023;-93
2023/10/09 01:16:33;;;;;;;0.85;0.80;;;;;;;20.06;46.02;93941.34;6067821;23;20470;-94
2023/10/09 01:18:59;;;;;;;0.90;0.73;;;;;;;20.07;45.93;93940.09;6067077;23;20718;-93
2023/10/09 01:21:26;;;;;;;0.85;0.50;;;;;;;20.05;45.78;93935.13;6066156;23;20105;-94
2023/10/09 01:26:39;;;;;;;0.93;0.70;;;;;;;20.04;46.04;93932.88;6068547;23;20046;-94
2023/10/09 01:29:10;;;;;;;1.10;0.55;;;;;;;20.06;45.92;93922.91;6067839;23;20018;-94
2023/10/09 01:31:38;;;;;;;0.57;0.52;;;;;;;20.04;46.12;93919.91;6068961;23;20470;-94
2023/10/09 01:34:09;;;;;;;0.60;0.57;;;;;;;20.05;46.02;93920.66;6064154;23;20019;-95
2023/10/09 01:36:38;;;;;;;1.08;0.57;;;;;;;20.08;46.07;93914.16;6042595;23;20022;-95
2023/10/09 01:41:57;;;;;;;0.63;0.60;;;;;;;20.05;46.01;93910.44;6068607;23;20078;-92
2023/10/09 01:44:25;;;;;;;0.73;0.60;;;;;;;20.04;45.85;93908.94;6040671;23;20042;-96
2023/10/09 01:46:55;;;;;;;1.05;0.60;;;;;;;20.03;46.00;93896.47;6065737;23;20105;-92
2023/10/09 01:49:29;;;;;;;0.38;0.38;;;;;;;20.04;45.84;93914.41;6040970;23;20025;-93
2023/10/09 01:52:03;;;;;;;1.17;0.63;;;;;;;20.03;45.98;93907.44;6042377;23;20222;-94
2023/10/09 01:54:36;;;;;;;1.05;0.55;;;;;;;20.03;46.08;93901.22;6065797;23;20415;-92
2023/10/09 01:57:12;;;;;;;0.60;0.50;;;;;;;20.04;45.94;93886.22;6066947;23;20033;-94
2023/10/09 01:59:38;;;;;;;0.77;0.63;;;;;;;20.03;46.02;93882.00;6044465;23;20038;-94
2023/10/09 02:04:54;;;;;;;0.80;0.70;;;;;;;20.03;45.90;93877.25;6074491;23;20018;-95
2023/10/09 02:07:28;;;;;;;0.93;0.65;;;;;;;20.03;46.03;93879.25;6044128;23;20419;-94
2023/10/09 02:09:55;;;;;;;0.52;0.50;;;;;;;20.03;46.19;93868.28;6071002;23;20041;-94
2023/10/09 02:12:21;;;;;;;0.70;0.50;;;;;;;20.03;46.23;93869.03;6068075;23;20018;-92
2023/10/09 02:14:47;;;;;;;0.85;0.75;;;;;;;20.05;46.13;93876.75;6068520;23;20018;-93
2023/10/09 02:17:20;;;;;;;0.60;0.50;;;;;;;20.04;46.14;93876.00;6069603;23;20025;-94
2023/10/09 02:19:49;;;;;;;1.02;0.60;;;;;;;20.01;45.80;93873.53;6074215;23;20026;-94
2023/10/09 02:22:15;;;;;;;0.43;0.43;;;;;;;20.01;45.91;93877.00;6095985;23;20050;-93
2023/10/09 02:24:49;;;;;;;1.35;0.80;;;;;;;20.03;46.33;93868.28;6072535;23;20022;-93
2023/10/09 02:27:36;;;;;;;0.63;0.60;;;;;;;20.02;45.88;93875.75;6073510;23;20420;-93
2023/10/09 02:30:15;;;;;;;0.45;0.45;;;;;;;20.06;46.03;93870.00;6076378;23;20029;-95
2023/10/09 02:32:42;;;;;;;0.70;0.68;;;;;;;20.02;45.91;93859.28;6074867;23;20030;-94
2023/10/09 02:35:20;;;;;;;0.70;0.60;;;;;;;20.05;45.84;93858.28;6071470;23;20018;-95
2023/10/09 02:37:46;;;;;;;0.73;0.60;;;;;;;20.02;45.75;93847.56;6074603;23;20097;-93
2023/10/09 02:40:31;;;;;;;0.73;0.60;;;;;;;20.06;45.90;93843.31;6070930;23;20093;-93
2023/10/09 02:42:58;;;;;;;1.30;0.60;;;;;;;20.06;45.77;93848.03;6075908;23;20022;-93
2023/10/09 02:45:29;;;;;;;0.68;0.40;;;;;;;20.04;45.87;93840.31;6071493;23;20521;-94
2023/10/09 02:47:55;;;;;;;;;;;;;;;20.07;45.76;93836.56;6074211;23;20474;-91
2023/10/09 02:50:22;;;;;;;1.08;0.60;;;;;;;20.02;45.82;93834.59;6120398;23;20002;-93
2023/10/09 02:52:59;;;;;;;0.63;0.60;;;;;;;20.01;45.84;93838.59;6072336;23;20105;-93
2023/10/09 02:55:26;;;;;;;0.50;0.40;;;;;;;20.00;46.02;93833.63;6074160;23;20187;-94
2023/10/09 02:58:10;;;;;;;0.82;0.55;;;;;;;20.00;46.06;93831.63;6072656;23;20037;-95
2023/10/09 03:00:36;;;;;;;1.05;0.60;;;;;;;19.99;46.05;93835.63;6074743;23;20022;-93
2023/10/09 03:03:06;;;;;;;0.40;0.40;;;;;;;19.99;45.80;93821.16;6072180;23;20026;-93
2023/10/09 03:05:32;;;;;;;0.90;0.55;;;;;;;20.00;45.93;93820.63;6071721;23;20026;-93
2023/10/09 03:07:59;;;;;;;0.55;0.55;;;;;;;19.98;45.85;93817.66;6096008;23;20014;-94
2023/10/09 03:10:25;;;;;;;0.70;0.40;;;;;;;20.02;46.12;93814.66;6072495;23;20018;-93
2023/10/09 03:12:51;;;;;;;1.02;0.47;;;;;;;19.99;45.90;93816.41;6072740;23;20469;-94
2023/10/09 03:15:18;;;;;;;0.60;0.50;;;;;;;20.01;45.97;93805.66;6071088;23;20022;-95
2023/10/09 03:17:44;;;;;;;0.50;0.40;;;;;;;20.02;45.91;93803.66;6071284;23;20026;-94
2023/10/09 03:20:13;;;;;;;0.90;0.60;;;;;;;20.02;45.85;93803.66;6071568;23;20073;-95
2023/10/09 03:22:39;;;;;;;0.60;0.60;;;;;;;20.02;46.15;93792.69;6072245;23;20096;-93
2023/10/09 03:25:16;;;;;;;0.73;0.57;;;;;;;20.01;45.99;93805.66;6071614;23;20018;-94
2023/10/09 03:27:44;;;;;;;0.77;0.60;;;;;;;20.03;46.00;93786.69;6073755;23;20097;-92
2023/10/09 03:30:16;;;;;;;0.85;0.52;;;;;;;20.02;46.03;93790.69;6072962;23;20382;-94
2023/10/09 03:32:50;;;;;;;6.43;0.65;;;;;;;20.09;45.86;93781.16;6074240;23;20021;-95
2023/10/09 03:35:24;;;;;;;20.90;1.58;;;;;;;20.09;45.87;93783.91;6082178;23;20018;-92
2023/10/09 03:37:57;;;;;;;1.35;0.52;;;;;;;20.24;46.42;93783.50;6073960;23;20018;-94
2023/10/09 03:40:27;;;;;;;6.15;0.73;;;;;;;20.16;45.88;93788.81;6073635;23;20278;-93
2023/10/09 03:42:52;;;;;;;1.63;1.00;;;;;;;20.30;46.18;93790.44;6076798;23;20014;-93
2023/10/09 03:45:25;;;;;;;2.67;0.75;;;;;;;20.29;45.86;93786.22;6066149;23;20380;-94
2023/10/09 03:48:15;;;;;;;1.70;1.00;;;;;;;20.20;45.53;93775.56;6073203;23;20041;-90
2023/10/09 03:50:43;;;;;;;;;;;;;;;20.17;45.64;93773.81;6075239;23;20048;-91
2023/10/09 03:53:12;;;;;;;5.43;3.85;;;;;;;20.15;45.84;93765.38;6070261;23;20000;-89
2023/10/09 03:55:39;;;;;;;8.43;4.57;;;;;;;20.10;45.87;93777.16;6077564;23;20017;-92
2023/10/09 03:58:06;;;;;;;25.92;4.65;;;;;;;20.09;45.53;93764.69;6096610;23;20018;-92
2023/10/09 04:00:31;;;;;;;19.35;4.18;;;;;;;20.04;45.63;93770.97;6072807;23;20029;-93
2023/10/09 04:02:59;;;;;;;13.80;3.45;;;;;;;19.85;45.80;93768.13;6102365;23;20085;-93
2023/10/09 04:05:25;;;;;;;7.40;3.65;;;;;;;19.73;46.28;93769.47;6073209;23;20037;-94
2023/10/09 04:08:39;;;;;;;18.15;6.20;;;;;;;19.68;46.69;93765.53;6065994;23;20018;-93
2023/10/09 04:14:35;;;;;;;19.48;6.38;;;;;;;19.59;46.85;93760.34;5860428;24;20026;-91
2023/10/09 04:17:08;;;;;;;42.92;6.75;;;;;;;19.60;46.87;93752.88;5870013;24;20025;-91
2023/10/09 04:22:25;;;;;;;56.88;7.30;;;;;;;19.50;47.21;93746.94;6148132;23;20032;-92
2023/10/09 04:24:53;;;;;;;25.27;5.35;;;;;;;19.50;47.18;93746.94;6081482;23;20025;-95
2023/10/09 04:27:44;;;;;;;35.95;9.25;;;;;;;19.46;47.52;93749.97;6046294;23;20076;-94
2023/10/09 04:30:15;;;;;;;29.05;9.00;;;;;;;19.49;47.45;93737.22;6035162;23;20023;-95
2023/10/09 04:32:44;;;;;;;16.77;7.53;;;;;;;19.42;47.48;93738.53;6020985;23;20067;-93
2023/10/09 04:35:20;;;;;;;27.45;7.93;;;;;;;19.40;47.46;93740.28;6004780;23;20359;-91
2023/10/09 04:37:52;;;;;;;21.83;7.07;;;;;;;19.43;47.46;93731.78;5975477;23;20044;-93
2023/10/09 04:43:06;;;;;;;34.92;9.90;;;;;;;19.29;47.76;93732.13;5983091;23;20034;-94
2023/10/09 04:48:10;;;;;;;30.77;10.32;;;;;;;19.28;47.90;93730.63;6004082;23;20019;-91
2023/10/09 04:51:20;;;;;;;29.63;10.50;;;;;;;19.24;47.64;93730.19;5958140;23;20038;-92
2023/10/09 04:53:43;;;;;;;23.08;11.20;;;;;;;19.28;47.46;93725.91;5971498;23;20527;-90
2023/10/09 04:56:15;;;;;;;29.00;10.85;;;;;;;19.34;47.44;93725.88;5937964;23;20028;-91
2023/10/09 04:58:41;;;;;;;29.65;12.18;;;;;;;19.44;47.35;93721.56;5980172;23;20332;-92
2023/10/09 05:01:13;;;;;;;27.00;12.05;;;;;;;19.45;47.40;93717.56;5965105;23;20482;-90
2023/10/09 05:06:42;;;;;;;25.17;12.98;;;;;;;19.55;47.39;93709.78;5987689;23;20052;-92
2023/10/09 05:09:13;;;;;;;20.20;11.18;;;;;;;19.66;47.16;93706.97;6023963;23;20042;-92
2023/10/09 05:12:09;;;;;;;29.08;13.57;;;;;;;19.54;46.84;93700.06;6010394;23;20022;-92
2023/10/09 05:15:04;;;;;;;23.95;11.30;;;;;;;19.58;46.69;93695.06;6030750;23;20057;-91
2023/10/09 05:17:29;;;;;;;20.75;10.27;;;;;;;19.64;46.50;93693.75;6071650;23;20019;-91
2023/10/09 05:22:56;;;;;;;20.42;9.82;;;;;;;19.63;46.40;93689.53;6056179;23;20033;-93
2023/10/09 05:25:53;;;;;;;20.17;10.65;;;;;;;19.63;46.72;93684.03;6019888;23;20029;-93
2023/10/09 05:28:31;;;;;;;20.95;11.07;;;;;;;19.68;46.43;93680.50;6031653;23;20018;-91
2023/10/09 05:31:08;;;;;;;19.42;12.65;;;;;;;19.70;46.59;93683.47;6021226;23;20097;-93
2023/10/09 05:33:38;;;;;;;57.50;28.52;;;;;;;19.75;46.26;93688.16;6054413;23;20019;-93
2023/10/09 05:36:17;;;;;;;61.38;32.85;;;;;;;19.73;46.70;93685.19;6040936;23;20015;-94
2023/10/09 05:38:58;;;;;;;59.67;33.53;;;;;;;19.77;47.01;93680.16;6056020;23;20063;-94
2023/10/09 05:41:46;;;;;;;101.32;47.53;;;;;;;19.82;46.66;93687.59;6034133;23;20082;-92
2023/10/09 05:45:30;;;;;;;77.80;37.33;;;;;;;19.80;46.80;93689.38;6055135;23;20018;-95
2023/10/09 05:47:31;;;;;;;142.40;50.67;;;;;;;19.83;46.95;93702.06;6056545;23;20019;-94
2023/10/09 06:05:51;;;;;;;253.52;117.05;;;;;;;20.00;46.19;93688.91;5827617;24;20497;-91
2023/10/09 06:08:24;;;;;;;247.07;118.90;;;;;;;20.02;46.14;93682.91;5805803;24;20447;-93
2023/10/09 06:11:35;;;;;;;210.27;111.35;;;;;;;20.04;46.46;93689.38;5825467;24;20037;-93
2023/10/09 06:14:12;;;;;;;;;;;;;;;;;;;;;
2023/10/09 06:19:43;;;;;;;174.50;95.85;;;;;;;20.08;46.57;93694.59;5693762;24;20032;-93
2023/10/09 06:25:26;;;;;;;151.38;88.65;;;;;;;20.14;46.32;93701.50;5765311;24;20088;-93
2023/10/09 06:28:49;;;;;;;135.20;79.55;;;;;;;20.09;46.65;93715.28;5884653;23;20030;-94
2023/10/09 06:31:57;;;;;;;152.98;87.63;;;;;;;20.10;46.07;93709.28;5996472;23;20019;-92
2023/10/09 06:34:31;;;;;;;157.68;87.53;;;;;;;20.13;45.99;93715.75;6020989;23;20028;-93
2023/10/09 06:37:07;;;;;;;136.32;80.75;;;;;;;20.10;46.63;93723.00;6056523;23;20030;-93
2023/10/09 06:39:50;;;;;;;168.73;98.72;;;;;;;20.12;46.49;93728.00;6079434;23;20018;-93
2023/10/09 06:42:33;;;;;;;176.20;97.88;;;;;;;20.13;46.27;93710.25;6079366;23;20109;-91
2023/10/09 06:45:07;;;;;;;170.38;97.35;;;;;;;20.13;46.65;93721.25;6059023;23;20022;-93
2023/10/09 06:47:41;;;;;;;172.00;94.20;;;;;;;20.12;46.61;93714.25;6073317;23;20056;-93
2023/10/09 06:55:48;;;;;;;157.25;84.65;;;;;;;20.13;46.45;93719.25;6056757;23;20493;-91
2023/10/09 06:58:22;;;;;;;132.35;76.57;;;;;;;20.17;46.39;93707.94;6048358;23;20025;-88
2023/10/09 07:01:19;;;;;;;140.98;76.47;;;;;;;20.15;46.46;93708.47;6096958;23;20022;-90
2023/10/09 07:03:51;;;;;;;141.35;81.20;;;;;;;20.15;46.29;93708.47;6083587;23;20025;-88
2023/10/09 07:06:48;;;;;;;117.87;72.53;;;;;;;20.14;46.31;93717.22;6052898;23;20018;-89
2023/10/09 07:17:15;;;;;;;148.85;73.22;;;;;;;20.18;46.11;93709.44;6077457;23;20014;-92
2023/10/09 07:24:58;;;;;;;112.57;60.17;;;;;;;20.18;46.62;93729.41;6095324;23;20053;-93
2023/10/09 07:35:57;;;;;;;95.38;53.13;;;;;;;20.18;46.35;93728.66;6095532;23;20018;-93
2023/10/09 07:38:38;;;;;;;87.07;52.00;;;;;;;20.19;46.40;93719.91;6030022;23;20031;-94
2023/10/09 07:43:39;;;;;;;94.97;48.13;;;;;;;20.22;46.62;93715.38;5972623;23;20027;-91
2023/10/09 07:52:01;;;;;;;109.63;56.30;;;;;;;20.25;46.30;93706.13;5895861;24;20040;-93
2023/10/09 07:55:06;;;;;;;125.93;67.20;;;;;;;20.24;46.61;93709.38;5873424;24;20140;-93
2023/10/09 07:57:51;;;;;;;122.10;69.78;;;;;;;20.23;46.80;93714.13;5918254;24;20058;-93
2023/10/09 08:03:02;;;;;;;148.13;81.72;;;;;;;20.27;46.42;93730.31;5890703;24;20028;-93
2023/10/09 08:05:44;;;;;;;158.30;83.75;;;;;;;20.24;46.86;93728.59;5872298;24;20029;-93
2023/10/09 08:13:49;;;;;;;126.22;74.72;;;;;;;20.27;47.00;93738.56;5969510;24;20031;-93
2023/10/09 08:16:21;;;;;;;134.23;80.90;;;;;;;20.35;46.37;93734.72;5963522;24;20035;-93
2023/10/09 08:18:51;;;;;;;131.30;76.95;;;;;;;20.30;46.88;93734.78;5962551;24;20059;-93
2023/10/09 08:21:41;;;;;;;104.63;61.38;;;;;;;20.26;47.75;93734.31;6002247;23;20339;-93
2023/10/09 08:24:35;;;;;;;91.78;50.13;;;;;;;20.22;47.84;93733.88;6082375;23;20021;-93
2023/10/09 08:27:28;;;;;;;65.70;34.95;;;;;;;20.20;48.45;93734.38;6082040;23;20021;-92
2023/10/09 08:29:46;;;;;;;80.60;35.55;;;;;;;20.18;48.68;93747.88;6082564;23;20053;-93
2023/10/09 08:32:18;;;;;;;72.70;32.17;;;;;;;20.12;49.27;93730.72;6050763;23;20029;-94
2023/10/09 08:34:53;;;;;;;64.82;35.08;;;;;;;20.07;49.56;93726.78;6050776;23;20022;-93
2023/10/09 08:37:19;;;;;;;86.05;43.67;;;;;;;20.04;49.47;93729.81;6074406;23;20470;-94
2023/10/09 08:39:45;;;;;;;72.38;41.75;;;;;;;20.06;49.56;93719.81;6075910;23;20037;-94
2023/10/09 08:42:10;;;;;;;67.50;34.03;;;;;;;20.12;49.44;93733.47;6073936;23;20045;-94
2023/10/09 08:44:36;;;;;;;65.65;32.80;;;;;;;20.08;49.58;93733.00;6051610;23;20022;-93
2023/10/09 08:47:01;;;;;;;56.88;31.35;;;;;;;20.04;49.76;93732.53;6053178;23;20446;-93
2023/10/09 08:49:27;;;;;;;65.55;34.50;;;;;;;20.05;49.48;93732.03;6050215;23;20048;-92
2023/10/09 08:51:53;;;;;;;57.22;29.35;;;;;;;20.01;49.96;93739.81;6052235;23;20018;-91
2023/10/09 08:54:19;;;;;;;53.28;29.60;;;;;;;20.02;50.07;93737.81;6050871;23;20018;-92
2023/10/09 08:56:50;;;;;;;70.90;32.53;;;;;;;19.99;50.23;93731.34;6050147;23;20401;-94
2023/10/09 08:59:19;;;;;;;65.80;29.25;;;;;;;19.97;50.19;93733.84;6050446;23;20040;-92
2023/10/09 09:01:49;;;;;;;61.72;29.98;;;;;;;19.90;50.23;93739.19;6050486;23;20097;-92
2023/10/09 09:04:38;;;;;;;55.38;29.27;;;;;;;19.92;50.47;93745.63;6048400;23;20026;-93
2023/10/09 09:07:04;;;;;;;64.80;30.95;;;;;;;19.94;50.28;93747.84;6071368;23;20026;-91
2023/10/09 09:09:32;;;;;;;71.53;33.92;;;;;;;19.93;50.41;93749.09;6072543;23;20077;-92
2023/10/09 09:11:59;;;;;;;70.90;36.35;;;;;;;19.85;50.14;93746.94;6074476;23;20018;-92
2023/10/09 09:14:45;;;;;;;79.40;38.85;;;;;;;19.91;50.14;93752.38;6074658;23;20537;-92
2023/10/09 09:17:11;;;;;;;76.10;37.67;;;;;;;19.94;50.08;93740.34;6096068;23;20126;-91
2023/10/09 09:19:37;;;;;;;83.90;44.22;;;;;;;19.99;49.93;93749.81;6048731;23;20022;-91
2023/10/09 09:22:12;;;;;;;100.75;51.42;;;;;;;20.00;49.69;93754.03;6044658;23;20022;-92
2023/10/09 09:24:39;;;;;;;97.63;53.75;;;;;;;20.07;49.60;93758.97;6052773;23;20053;-92
2023/10/09 09:27:18;;;;;;;117.50;57.20;;;;;;;20.12;49.50;93758.19;6046682;23;20399;-93
2023/10/09 09:29:52;;;;;;;97.82;53.20;;;;;;;20.12;49.57;93760.94;6056622;23;20561;-93
2023/10/09 09:32:29;;;;;;;85.05;45.97;;;;;;;20.12;49.48;93761.66;6052519;23;20541;-93
2023/10/09 09:34:56;;;;;;;99.90;55.53;;;;;;;20.17;49.61;93763.59;6051238;23;20783;-91
2023/10/09 09:37:28;;;;;;;97.22;53.88;;;;;;;20.18;49.22;93767.81;6075183;23;20029;-91
2023/10/09 09:40:14;;;;;;;96.75;52.17;;;;;;;20.16;49.42;93777.81;6053705;23;20186;-91
2023/10/09 09:42:44;;;;;;;96.90;50.60;;;;;;;20.19;49.03;93776.81;6059038;23;20084;-91
2023/10/09 09:45:13;;;;;;;95.00;53.10;;;;;;;20.22;49.14;93778.53;6075790;23;20024;-90
2023/10/09 09:47:38;;;;;;;87.60;47.22;;;;;;;20.20;49.12;93781.78;6050546;23;20026;-92
2023/10/09 09:50:11;;;;;;;92.75;52.10;;;;;;;20.20;49.22;93784.53;6050932;23;20029;-91
2023/10/09 09:52:40;;;;;;;128.57;67.13;;;;;;;20.29;49.23;93794.44;6077307;23;20029;-90
2023/10/09 09:55:16;;;;;;;119.40;62.33;;;;;;;20.29;49.07;93788.22;6053565;23;20026;-92
2023/10/09 09:57:45;;;;;;;155.00;80.88;;;;;;;20.27;49.02;93798.97;6055192;23;20014;-92
2023/10/09 10:00:27;;;;;;;193.68;89.07;;;;;;;20.28;49.08;93795.69;6035997;23;20014;-92
2023/10/09 10:02:57;;;;;;;187.40;85.10;;;;;;;20.29;49.04;93797.19;6055491;23;20442;-91
2023/10/09 10:05:29;;;;;;;166.20;77.23;;;;;;;20.27;49.69;93802.44;6048353;23;20190;-91
2023/10/09 10:07:57;;;;;;;157.73;78.75;;;;;;;20.30;49.29;93790.44;6050639;23;20374;-92
2023/10/09 10:10:47;;;;;;;156.73;69.68;;;;;;;20.29;49.30;93790.94;6045817;23;20149;-91
2023/10/09 10:13:21;;;;;;;;;;;;;;;20.31;49.18;93791.94;6053248;23;20028;-92
2023/10/09 10:16:19;;;;;;;140.32;63.40;;;;;;;20.32;49.19;93784.44;6075125;23;19916;-92
2023/10/09 10:18:59;;;;;;;101.30;52.33;;;;;;;20.32;49.40;93792.69;6055912;23;20030;-92
2023/10/09 10:21:38;;;;;;;;;;;;;;;;;;;;;
2023/10/09 10:24:11;;;;;;;103.90;53.08;;;;;;;20.29;49.09;93788.22;6077815;23;20022;-93
2023/10/09 10:26:36;;;;;;;105.43;52.63;;;;;;;20.31;49.12;93791.19;6054522;23;20054;-93
2023/10/09 10:29:33;;;;;;;83.15;47.83;;;;;;;20.30;49.18;93787.69;6075533;23;20033;-91
2023/10/09 10:32:06;;;;;;;73.78;44.72;;;;;;;20.37;49.33;93789.13;6081015;23;20147;-93
2023/10/09 10:34:55;;;;;;;130.70;90.97;;;;;;;20.34;49.16;93792.91;6053355;23;20030;-92
2023/10/09 10:37:45;;;;;;;145.20;92.32;;;;;;;20.33;49.07;93783.19;6093357;23;20067;-91
2023/10/09 10:40:24;;;;;;;74.97;41.83;;;;;;;20.34;48.98;93785.41;6049761;23;20366;-92
2023/10/09 10:43:09;;;;;;;73.05;40.60;;;;;;;20.41;48.94;93779.38;6073394;23;20027;-92
2023/10/09 10:45:35;;;;;;;66.40;38.53;;;;;;;20.40;49.09;93786.09;6046923;23;20021;-92
2023/10/09 10:48:06;;;;;;;53.13;34.67;;;;;;;20.38;49.13;93777.63;6045599;23;20050;-92
2023/10/09 10:53:13;;;;;;;50.53;31.73;;;;;;;20.35;48.92;93770.41;6069387;23;20473;-91
2023/10/09 10:58:25;;;;;;;52.38;31.70;;;;;;;20.38;48.86;93776.91;6056637;23;20019;-93
2023/10/09 11:03:29;;;;;;;70.63;41.92;;;;;;;20.37;48.75;93770.66;6072919;23;20026;-92
2023/10/09 11:06:05;;;;;;;77.70;47.33;;;;;;;20.39;48.95;93792.84;6049625;23;20034;-93
2023/10/09 11:08:32;;;;;;;79.32;51.45;;;;;;;20.39;48.97;93762.66;6074272;23;20026;-93
2023/10/09 11:11:15;;;;;;;111.30;58.13;;;;;;;20.45;48.94;93760.59;6049324;23;20022;-93
2023/10/09 11:13:57;;;;;;;112.60;67.95;;;;;;;20.48;48.79;93789.78;6038324;23;20025;-92
2023/10/09 11:17:03;;;;;;;102.07;66.20;;;;;;;20.36;49.05;93795.84;6111249;23;20014;-93
2023/10/09 11:24:30;;;;;;;99.55;57.67;;;;;;;20.37;49.15;93778.91;6067939;23;20025;-94
2023/10/09 11:27:16;;;;;;;100.90;58.05;;;;;;;20.30;49.37;93787.69;6041295;23;20030;-93
2023/10/09 11:29:55;;;;;;;133.88;71.38;;;;;;;20.28;49.46;93812.16;6044600;23;20018;-93
2023/10/09 11:32:23;;;;;;;116.68;64.43;;;;;;;20.31;49.35;93802.91;6056526;23;20042;-94
2023/10/09 11:34:55;;;;;;;100.38;56.83;;;;;;;20.27;49.13;93818.91;6048413;23;20018;-93
2023/10/09 11:40:00;;;;;;;82.82;47.67;;;;;;;20.25;49.37;93769.28;6065646;23;20029;-93
2023/10/09 11:42:38;;;;;;;86.70;48.45;;;;;;;20.26;49.28;93817.44;6098677;23;20018;-93
2023/10/09 11:45:19;;;;;;;87.00;46.95;;;;;;;20.23;49.59;93807.47;6053616;23;20362;-93
2023/10/09 11:47:59;;;;;;;87.50;41.25;;;;;;;20.19;49.71;93736.38;6075911;23;20059;-93
2023/10/09 11:55:52;;;;;;;80.18;38.28;;;;;;;20.20;49.51;93764.56;6076889;23;20033;-93
2023/10/09 11:58:24;;;;;;;72.88;35.28;;;;;;;20.20;49.64;93783.78;6050338;23;20029;-93
2023/10/09 12:01:17;;;;;;;68.03;32.92;;;;;;;20.20;49.89;93786.53;6056727;23;20814;-93
2023/10/09 12:03:49;;;;;;;63.03;30.27;;;;;;;20.18;50.29;93800.03;6030968;23;20034;-93
2023/10/09 12:06:18;;;;;;;72.00;34.05;;;;;;;20.19;50.03;93793.28;6043941;23;20026;-93
2023/10/09 12:08:47;;;;;;;70.80;28.35;;;;;;;20.19;49.79;93787.78;6048344;23;20327;-92
2023/10/09 12:11:14;;;;;;;85.32;32.55;;;;;;;20.17;50.50;93791.03;6047685;23;20023;-93
2023/10/09 12:13:42;;;;;;;68.65;30.85;;;;;;;20.14;50.35;93777.59;6024957;23;20033;-92
2023/10/09 12:16:09;;;;;;;75.18;33.30;;;;;;;20.14;50.27;93785.84;6049559;23;20022;-92
2023/10/09 12:18:39;;;;;;;62.10;32.65;;;;;;;20.13;50.18;93776.88;6050467;23;20422;-92
2023/10/09 12:21:05;;;;;;;70.88;37.50;;;;;;;20.12;50.19;93800.09;6046929;23;20026;-93
2023/10/09 12:23:47;;;;;;;64.22;36.17;;;;;;;20.13;50.66;93809.06;6046376;23;20082;-93
2023/10/09 12:26:21;;;;;;;61.40;35.50;;;;;;;20.06;50.77;93806.88;6027941;23;20030;-94
2023/10/09 12:28:46;;;;;;;69.40;35.67;;;;;;;20.06;50.87;93823.34;6072095;23;20489;-93
2023/10/09 12:31:19;;;;;;;56.60;36.75;;;;;;;20.02;50.85;93792.69;6019195;23;20176;-94
2023/10/09 12:33:47;;;;;;;88.63;55.85;;;;;;;20.11;51.25;93784.88;6064332;23;20026;-92
2023/10/09 12:36:19;;;;;;;94.82;49.00;;;;;;;20.18;50.91;93797.28;6040260;23;20486;-92
2023/10/09 12:38:58;;;;;;;81.13;46.45;;;;;;;20.17;50.67;93779.31;5978600;23;20031;-92
2023/10/09 12:41:58;;;;;;;67.85;41.83;;;;;;;20.15;50.75;93757.88;6041620;23;20058;-92
2023/10/09 12:44:27;;;;;;;62.97;36.97;;;;;;;20.20;51.06;93754.34;5954266;23;20024;-93
2023/10/09 12:49:25;;;;;;;54.63;32.72;;;;;;;20.24;50.74;93776.00;6154886;23;20409;-93
2023/10/09 12:51:52;;;;;;;48.00;31.50;;;;;;;20.29;50.84;93793.69;6082787;23;20029;-95
2023/10/09 12:54:26;;;;;;;47.38;29.08;;;;;;;20.20;50.78;93787.28;6078979;23;20025;-94
2023/10/09 12:56:59;;;;;;;52.55;26.83;;;;;;;20.21;50.69;93774.28;6082355;23;20333;-94
2023/10/09 12:59:25;;;;;;;51.85;28.15;;;;;;;20.20;50.37;93767.31;6084863;23;20017;-90
2023/10/09 13:01:57;;;;;;;49.47;24.13;;;;;;;20.17;50.68;93757.34;6064887;23;20053;-92
2023/10/09 13:04:23;;;;;;;55.78;24.85;;;;;;;20.15;50.82;93754.38;6078942;23;20021;-93
2023/10/09 13:06:53;;;;;;;52.85;25.45;;;;;;;20.14;50.76;93763.88;6074902;23;20033;-92
2023/10/09 13:09:25;;;;;;;43.88;25.20;;;;;;;20.11;51.29;93778.66;6075501;23;20025;-91
2023/10/09 13:11:50;;;;;;;40.92;23.02;;;;;;;20.10;50.95;93764.19;6077712;23;20017;-92
2023/10/09 13:14:21;;;;;;;44.45;23.08;;;;;;;20.11;51.05;93740.22;6075675;23;20032;-93
2023/10/09 13:16:50;;;;;;;41.72;23.33;;;;;;;20.13;50.87;93723.97;6077328;23;20366;-93
2023/10/09 13:19:19;;;;;;;36.00;21.23;;;;;;;20.12;51.01;93722.50;6077848;23;20108;-91
2023/10/09 13:21:48;;;;;;;35.50;20.27;;;;;;;20.13;51.17;93726.72;6100503;23;20060;-93
2023/10/09 13:24:15;;;;;;;38.95;20.60;;;;;;;20.11;50.90;93721.75;6082690;23;20576;-93
2023/10/09 13:26:51;;;;;;;30.55;17.92;;;;;;;20.09;51.41;93735.25;6046714;23;20027;-94
2023/10/09 13:29:22;;;;;;;32.47;18.45;;;;;;;20.10;51.40;93738.72;6062130;23;20021;-92
2023/10/09 13:31:49;;;;;;;68.45;31.80;;;;;;;20.15;51.42;93735.16;6085488;23;20092;-93
2023/10/09 13:34:17;;;;;;;93.88;39.60;;;;;;;20.19;51.37;93732.88;6103727;23;20048;-92
2023/10/09 13:36:58;;;;;;;88.53;40.42;;;;;;;20.14;51.53;93739.91;6083583;23;20287;-93
2023/10/09 13:39:27;;;;;;;102.53;51.10;;;;;;;20.14;51.49;93733.69;6086890;23;20025;-93
2023/10/09 13:42:01;;;;;;;133.02;65.60;;;;;;;20.12;51.55;93728.72;6069385;23;20017;-93
2023/10/09 13:44:41;;;;;;;122.43;67.63;;;;;;;20.09;51.50;93729.00;6072746;23;20025;-93
2023/10/09 13:47:19;;;;;;;119.13;65.80;;;;;;;20.15;51.57;93721.44;6035772;23;20493;-94
2023/10/09 13:49:50;;;;;;;121.18;67.28;;;;;;;20.06;51.66;93722.53;6036853;23;20101;-93
2023/10/09 13:52:18;;;;;;;111.68;62.72;;;;;;;20.08;51.67;93717.28;6066344;23;20018;-93
2023/10/09 13:54:48;;;;;;;123.40;68.75;;;;;;;20.05;52.12;93725.81;6083530;23;20536;-94